sensor_id;sensor_type;location;lat;lon;timestamp;P1;durP1;ratioP1;P2;durP2;ratioP2
68910;SDS011;55953;51.650;-0.522;2023-04-03T00:01:24;5.80;;;1.70;;
68910;SDS011;55953;51.650;-0.522;2023-04-03T00:03:52;8.50;;;2.30;;
68910;SDS011;55953;51.650;-0.522;2023-04-03T00:06:20;7.80;;;1.80;;
68910;SDS011;55953;51.650;-0.522;2023-04-03T00:08:49;7.40;;;1.70;;
68910;SDS011;55953;51.650;-0.522;2023-04-03T00:11:18;4.20;;;1.50;;
68910;SDS011;55953;51.650;-0.522;2023-04-03T00:13:46;6.40;;;1.70;;
68910;SDS011;55953;51.650;-0.522;2023-04-03T00:16:14;9.20;;;1.70;;
68910;SDS011;55953;51.650;-0.522;2023-04-03T00:18:43;6.20;;;1.40;;
68910;SDS011;55953;51.650;-0.522;2023-04-03T00:21:13;9.90;;;1.90;;
68910;SDS011;55953;51.650;-0.522;2023-04-03T00:23:42;4.40;;;1.80;;
68910;SDS011;55953;51.650;-0.522;2023-04-03T00:26:11;9.20;;;1.90;;
68910;SDS011;55953;51.650;-0.522;2023-04-03T00:28:41;6.60;;;1.90;;
68910;SDS011;55953;51.650;-0.522;2023-04-03T00:31:09;7.80;;;1.40;;
68910;SDS011;55953;51.650;-0.522;2023-04-03T00:33:39;4.50;;;1.30;;
68910;SDS011;55953;51.650;-0.522;2023-04-03T00:36:09;3.80;;;1.40;;
68910;SDS011;55953;51.650;-0.522;2023-04-03T00:38:38;4.80;;;1.40;;
68910;SDS011;55953;51.650;-0.522;2023-04-03T00:41:07;10.50;;;1.90;;
68910;SDS011;55953;51.650;-0.522;2023-04-03T00:43:36;7.60;;;2.20;;
68910;SDS011;55953;51.650;-0.522;2023-04-03T00:46:05;6.90;;;1.40;;
68910;SDS011;55953;51.650;-0.522;2023-04-03T00:48:43;4.00;;;1.40;;
68910;SDS011;55953;51.650;-0.522;2023-04-03T00:51:24;6.30;;;1.50;;
68910;SDS011;55953;51.650;-0.522;2023-04-03T00:54:02;5.40;;;1.50;;
68910;SDS011;55953;51.650;-0.522;2023-04-03T00:56:35;6.80;;;1.40;;
68910;SDS011;55953;51.650;-0.522;2023-04-03T00:59:20;4.50;;;1.70;;
68910;SDS011;55953;51.650;-0.522;2023-04-03T01:01:54;7.30;;;2.00;;
68910;SDS011;55953;51.650;-0.522;2023-04-03T01:07:11;7.90;;;1.60;;
68910;SDS011;55953;51.650;-0.522;2023-04-03T01:09:43;6.80;;;1.70;;
68910;SDS011;55953;51.650;-0.522;2023-04-03T01:12:22;10.70;;;1.70;;
68910;SDS011;55953;51.650;-0.522;2023-04-03T01:14:55;10.80;;;1.90;;
68910;SDS011;55953;51.650;-0.522;2023-04-03T01:17:39;8.90;;;1.80;;
68910;SDS011;55953;51.650;-0.522;2023-04-03T01:28:17;7.20;;;1.70;;
68910;SDS011;55953;51.650;-0.522;2023-04-03T01:33:50;8.50;;;1.90;;
68910;SDS011;55953;51.650;-0.522;2023-04-03T01:36:22;5.80;;;1.70;;
68910;SDS011;55953;51.650;-0.522;2023-04-03T01:38:55;8.00;;;2.10;;
68910;SDS011;55953;51.650;-0.522;2023-04-03T01:41:24;5.30;;;1.60;;
68910;SDS011;55953;51.650;-0.522;2023-04-03T01:43:55;7.20;;;1.70;;
68910;SDS011;55953;51.650;-0.522;2023-04-03T01:46:23;7.20;;;1.70;;
68910;SDS011;55953;51.650;-0.522;2023-04-03T01:48:52;10.00;;;2.00;;
68910;SDS011;55953;51.650;-0.522;2023-04-03T01:51:19;7.30;;;1.80;;
68910;SDS011;55953;51.650;-0.522;2023-04-03T01:53:48;5.70;;;1.60;;
68910;SDS011;55953;51.650;-0.522;2023-04-03T01:56:15;4.80;;;1.40;;
68910;SDS011;55953;51.650;-0.522;2023-04-03T01:58:43;6.70;;;1.50;;
68910;SDS011;55953;51.650;-0.522;2023-04-03T02:01:12;8.00;;;1.60;;
68910;SDS011;55953;51.650;-0.522;2023-04-03T02:03:40;6.40;;;1.50;;
68910;SDS011;55953;51.650;-0.522;2023-04-03T02:06:08;5.00;;;1.60;;
68910;SDS011;55953;51.650;-0.522;2023-04-03T02:08:39;5.60;;;1.50;;
68910;SDS011;55953;51.650;-0.522;2023-04-03T02:11:07;10.00;;;1.70;;
68910;SDS011;55953;51.650;-0.522;2023-04-03T02:13:35;3.70;;;1.40;;
68910;SDS011;55953;51.650;-0.522;2023-04-03T02:16:09;7.90;;;1.80;;
68910;SDS011;55953;51.650;-0.522;2023-04-03T02:18:38;6.40;;;1.60;;
68910;SDS011;55953;51.650;-0.522;2023-04-03T02:21:07;5.50;;;1.80;;
68910;SDS011;55953;51.650;-0.522;2023-04-03T02:23:34;9.20;;;1.90;;
68910;SDS011;55953;51.650;-0.522;2023-04-03T02:26:13;5.10;;;1.80;;
68910;SDS011;55953;51.650;-0.522;2023-04-03T02:28:42;8.80;;;1.80;;
68910;SDS011;55953;51.650;-0.522;2023-04-03T02:31:10;7.40;;;1.60;;
68910;SDS011;55953;51.650;-0.522;2023-04-03T02:33:39;5.60;;;1.70;;
68910;SDS011;55953;51.650;-0.522;2023-04-03T02:36:09;5.80;;;1.80;;
68910;SDS011;55953;51.650;-0.522;2023-04-03T02:38:38;6.50;;;2.00;;
68910;SDS011;55953;51.650;-0.522;2023-04-03T02:41:08;10.50;;;2.10;;
68910;SDS011;55953;51.650;-0.522;2023-04-03T02:43:38;7.00;;;1.60;;
68910;SDS011;55953;51.650;-0.522;2023-04-03T02:46:06;7.10;;;1.60;;
68910;SDS011;55953;51.650;-0.522;2023-04-03T02:48:36;6.50;;;1.70;;
68910;SDS011;55953;51.650;-0.522;2023-04-03T02:51:04;6.90;;;1.90;;
68910;SDS011;55953;51.650;-0.522;2023-04-03T02:53:32;7.70;;;1.70;;
68910;SDS011;55953;51.650;-0.522;2023-04-03T02:56:05;10.40;;;1.80;;
68910;SDS011;55953;51.650;-0.522;2023-04-03T02:58:33;7.10;;;1.60;;
68910;SDS011;55953;51.650;-0.522;2023-04-03T03:01:01;8.10;;;2.20;;
68910;SDS011;55953;51.650;-0.522;2023-04-03T03:03:30;6.00;;;1.70;;
68910;SDS011;55953;51.650;-0.522;2023-04-03T03:06:10;7.70;;;1.90;;
68910;SDS011;55953;51.650;-0.522;2023-04-03T03:08:40;7.50;;;1.80;;
68910;SDS011;55953;51.650;-0.522;2023-04-03T03:11:09;5.80;;;1.70;;
68910;SDS011;55953;51.650;-0.522;2023-04-03T03:13:38;7.40;;;1.90;;
68910;SDS011;55953;51.650;-0.522;2023-04-03T03:16:06;7.30;;;1.90;;
68910;SDS011;55953;51.650;-0.522;2023-04-03T03:18:35;6.00;;;1.90;;
68910;SDS011;55953;51.650;-0.522;2023-04-03T03:21:03;6.90;;;1.90;;
68910;SDS011;55953;51.650;-0.522;2023-04-03T03:23:32;8.00;;;1.80;;
68910;SDS011;55953;51.650;-0.522;2023-04-03T03:26:04;8.70;;;1.60;;
68910;SDS011;55953;51.650;-0.522;2023-04-03T03:28:35;7.10;;;1.60;;
68910;SDS011;55953;51.650;-0.522;2023-04-03T03:31:05;8.10;;;1.50;;
68910;SDS011;55953;51.650;-0.522;2023-04-03T03:33:34;6.00;;;1.70;;
68910;SDS011;55953;51.650;-0.522;2023-04-03T03:36:02;8.90;;;2.00;;
68910;SDS011;55953;51.650;-0.522;2023-04-03T03:38:31;12.80;;;2.40;;
68910;SDS011;55953;51.650;-0.522;2023-04-03T03:40:59;5.20;;;2.20;;
68910;SDS011;55953;51.650;-0.522;2023-04-03T03:43:28;6.70;;;1.60;;
68910;SDS011;55953;51.650;-0.522;2023-04-03T03:45:56;7.90;;;1.80;;
68910;SDS011;55953;51.650;-0.522;2023-04-03T03:48:24;7.60;;;1.90;;
68910;SDS011;55953;51.650;-0.522;2023-04-03T03:50:52;9.70;;;2.00;;
68910;SDS011;55953;51.650;-0.522;2023-04-03T03:53:23;5.90;;;1.90;;
68910;SDS011;55953;51.650;-0.522;2023-04-03T03:55:53;6.80;;;1.90;;
68910;SDS011;55953;51.650;-0.522;2023-04-03T03:58:22;11.10;;;1.80;;
68910;SDS011;55953;51.650;-0.522;2023-04-03T04:00:50;9.60;;;2.50;;
68910;SDS011;55953;51.650;-0.522;2023-04-03T04:03:18;7.90;;;1.90;;
68910;SDS011;55953;51.650;-0.522;2023-04-03T04:05:48;7.30;;;2.00;;
68910;SDS011;55953;51.650;-0.522;2023-04-03T04:08:16;6.10;;;1.90;;
68910;SDS011;55953;51.650;-0.522;2023-04-03T04:10:46;10.70;;;2.10;;
68910;SDS011;55953;51.650;-0.522;2023-04-03T04:13:15;5.20;;;2.00;;
68910;SDS011;55953;51.650;-0.522;2023-04-03T04:15:44;6.70;;;1.80;;
68910;SDS011;55953;51.650;-0.522;2023-04-03T04:18:13;6.60;;;2.10;;
68910;SDS011;55953;51.650;-0.522;2023-04-03T04:20:45;6.60;;;2.20;;
68910;SDS011;55953;51.650;-0.522;2023-04-03T04:25:47;6.60;;;1.90;;
68910;SDS011;55953;51.650;-0.522;2023-04-03T04:28:16;9.10;;;2.10;;
68910;SDS011;55953;51.650;-0.522;2023-04-03T04:30:44;10.60;;;2.30;;
68910;SDS011;55953;51.650;-0.522;2023-04-03T04:33:13;7.70;;;2.20;;
68910;SDS011;55953;51.650;-0.522;2023-04-03T04:35:42;8.60;;;2.10;;
68910;SDS011;55953;51.650;-0.522;2023-04-03T04:38:11;5.40;;;1.80;;
68910;SDS011;55953;51.650;-0.522;2023-04-03T04:40:39;6.40;;;2.30;;
68910;SDS011;55953;51.650;-0.522;2023-04-03T04:43:09;10.70;;;2.20;;
68910;SDS011;55953;51.650;-0.522;2023-04-03T04:45:38;6.20;;;2.10;;
68910;SDS011;55953;51.650;-0.522;2023-04-03T04:48:07;8.70;;;2.50;;
68910;SDS011;55953;51.650;-0.522;2023-04-03T04:50:35;6.70;;;2.20;;
68910;SDS011;55953;51.650;-0.522;2023-04-03T04:53:03;8.20;;;2.30;;
68910;SDS011;55953;51.650;-0.522;2023-04-03T04:55:31;4.80;;;1.80;;
68910;SDS011;55953;51.650;-0.522;2023-04-03T04:57:59;5.40;;;2.00;;
68910;SDS011;55953;51.650;-0.522;2023-04-03T05:00:27;5.00;;;2.00;;
68910;SDS011;55953;51.650;-0.522;2023-04-03T05:02:56;8.50;;;2.20;;
68910;SDS011;55953;51.650;-0.522;2023-04-03T05:05:24;6.10;;;1.80;;
68910;SDS011;55953;51.650;-0.522;2023-04-03T05:07:53;10.90;;;2.20;;
68910;SDS011;55953;51.650;-0.522;2023-04-03T05:10:21;6.70;;;2.10;;
68910;SDS011;55953;51.650;-0.522;2023-04-03T05:12:49;11.30;;;2.20;;
68910;SDS011;55953;51.650;-0.522;2023-04-03T05:15:17;11.80;;;2.40;;
68910;SDS011;55953;51.650;-0.522;2023-04-03T05:17:46;7.40;;;2.00;;
68910;SDS011;55953;51.650;-0.522;2023-04-03T05:20:15;5.80;;;2.10;;
68910;SDS011;55953;51.650;-0.522;2023-04-03T05:22:45;7.10;;;2.00;;
68910;SDS011;55953;51.650;-0.522;2023-04-03T05:25:13;7.20;;;2.30;;
68910;SDS011;55953;51.650;-0.522;2023-04-03T05:27:43;3.60;;;1.80;;
68910;SDS011;55953;51.650;-0.522;2023-04-03T05:30:12;7.40;;;2.50;;
68910;SDS011;55953;51.650;-0.522;2023-04-03T05:32:41;6.50;;;1.90;;
68910;SDS011;55953;51.650;-0.522;2023-04-03T05:35:23;7.10;;;2.20;;
68910;SDS011;55953;51.650;-0.522;2023-04-03T05:37:53;10.60;;;2.20;;
68910;SDS011;55953;51.650;-0.522;2023-04-03T05:40:21;11.70;;;2.90;;
68910;SDS011;55953;51.650;-0.522;2023-04-03T05:42:51;9.70;;;2.20;;
68910;SDS011;55953;51.650;-0.522;2023-04-03T05:45:22;9.50;;;2.30;;
68910;SDS011;55953;51.650;-0.522;2023-04-03T05:47:50;10.30;;;2.60;;
68910;SDS011;55953;51.650;-0.522;2023-04-03T05:50:19;4.80;;;2.20;;
68910;SDS011;55953;51.650;-0.522;2023-04-03T05:52:51;5.70;;;2.40;;
68910;SDS011;55953;51.650;-0.522;2023-04-03T05:55:25;7.50;;;2.00;;
68910;SDS011;55953;51.650;-0.522;2023-04-03T05:57:54;6.40;;;2.80;;
68910;SDS011;55953;51.650;-0.522;2023-04-03T06:00:22;6.60;;;2.20;;
68910;SDS011;55953;51.650;-0.522;2023-04-03T06:02:56;6.90;;;2.20;;
68910;SDS011;55953;51.650;-0.522;2023-04-03T06:05:24;6.40;;;2.80;;
68910;SDS011;55953;51.650;-0.522;2023-04-03T06:07:53;10.40;;;2.80;;
68910;SDS011;55953;51.650;-0.522;2023-04-03T06:10:21;11.60;;;3.00;;
68910;SDS011;55953;51.650;-0.522;2023-04-03T06:12:50;5.30;;;2.00;;
68910;SDS011;55953;51.650;-0.522;2023-04-03T06:15:18;6.10;;;2.20;;
68910;SDS011;55953;51.650;-0.522;2023-04-03T06:17:48;4.30;;;2.10;;
68910;SDS011;55953;51.650;-0.522;2023-04-03T06:20:16;5.70;;;2.30;;
68910;SDS011;55953;51.650;-0.522;2023-04-03T06:22:45;7.10;;;2.20;;
68910;SDS011;55953;51.650;-0.522;2023-04-03T06:25:13;7.70;;;2.20;;
68910;SDS011;55953;51.650;-0.522;2023-04-03T06:27:41;9.70;;;2.60;;
68910;SDS011;55953;51.650;-0.522;2023-04-03T06:30:10;5.50;;;2.50;;
68910;SDS011;55953;51.650;-0.522;2023-04-03T06:32:39;8.10;;;2.50;;
68910;SDS011;55953;51.650;-0.522;2023-04-03T06:35:07;9.10;;;3.10;;
68910;SDS011;55953;51.650;-0.522;2023-04-03T06:37:36;9.00;;;2.50;;
68910;SDS011;55953;51.650;-0.522;2023-04-03T06:40:04;7.40;;;2.60;;
68910;SDS011;55953;51.650;-0.522;2023-04-03T06:42:33;9.00;;;2.50;;
68910;SDS011;55953;51.650;-0.522;2023-04-03T06:45:08;7.30;;;2.50;;
68910;SDS011;55953;51.650;-0.522;2023-04-03T06:47:36;8.80;;;2.80;;
68910;SDS011;55953;51.650;-0.522;2023-04-03T06:50:05;8.60;;;2.40;;
68910;SDS011;55953;51.650;-0.522;2023-04-03T06:52:34;5.50;;;2.50;;
68910;SDS011;55953;51.650;-0.522;2023-04-03T06:55:02;8.90;;;2.70;;
68910;SDS011;55953;51.650;-0.522;2023-04-03T06:57:31;9.30;;;3.10;;
68910;SDS011;55953;51.650;-0.522;2023-04-03T06:59:59;8.20;;;2.50;;
68910;SDS011;55953;51.650;-0.522;2023-04-03T07:02:27;9.20;;;2.60;;
68910;SDS011;55953;51.650;-0.522;2023-04-03T07:04:55;7.50;;;2.90;;
68910;SDS011;55953;51.650;-0.522;2023-04-03T07:07:23;11.60;;;2.70;;
68910;SDS011;55953;51.650;-0.522;2023-04-03T07:09:51;7.50;;;2.50;;
68910;SDS011;55953;51.650;-0.522;2023-04-03T07:12:20;10.50;;;2.90;;
68910;SDS011;55953;51.650;-0.522;2023-04-03T07:14:48;9.20;;;3.00;;
68910;SDS011;55953;51.650;-0.522;2023-04-03T07:17:17;8.80;;;2.80;;
68910;SDS011;55953;51.650;-0.522;2023-04-03T07:19:45;7.50;;;2.60;;
68910;SDS011;55953;51.650;-0.522;2023-04-03T07:22:12;6.50;;;2.50;;
68910;SDS011;55953;51.650;-0.522;2023-04-03T07:24:40;6.90;;;2.40;;
68910;SDS011;55953;51.650;-0.522;2023-04-03T07:27:09;10.30;;;2.80;;
68910;SDS011;55953;51.650;-0.522;2023-04-03T07:29:40;9.70;;;3.00;;
68910;SDS011;55953;51.650;-0.522;2023-04-03T07:32:08;8.70;;;2.40;;
68910;SDS011;55953;51.650;-0.522;2023-04-03T07:34:36;8.20;;;2.30;;
68910;SDS011;55953;51.650;-0.522;2023-04-03T07:37:04;5.90;;;2.60;;
68910;SDS011;55953;51.650;-0.522;2023-04-03T07:39:32;8.10;;;2.70;;
68910;SDS011;55953;51.650;-0.522;2023-04-03T07:42:01;6.70;;;2.60;;
68910;SDS011;55953;51.650;-0.522;2023-04-03T07:44:29;8.10;;;2.30;;
68910;SDS011;55953;51.650;-0.522;2023-04-03T07:46:58;9.80;;;2.50;;
68910;SDS011;55953;51.650;-0.522;2023-04-03T07:49:27;5.30;;;2.50;;
68910;SDS011;55953;51.650;-0.522;2023-04-03T07:51:56;10.70;;;2.40;;
68910;SDS011;55953;51.650;-0.522;2023-04-03T07:54:24;9.80;;;2.50;;
68910;SDS011;55953;51.650;-0.522;2023-04-03T07:56:52;9.10;;;2.30;;
68910;SDS011;55953;51.650;-0.522;2023-04-03T07:59:20;8.70;;;2.50;;
68910;SDS011;55953;51.650;-0.522;2023-04-03T08:01:48;6.20;;;2.60;;
68910;SDS011;55953;51.650;-0.522;2023-04-03T08:04:16;9.10;;;2.70;;
68910;SDS011;55953;51.650;-0.522;2023-04-03T08:06:44;6.10;;;2.90;;
68910;SDS011;55953;51.650;-0.522;2023-04-03T08:09:15;10.70;;;3.20;;
68910;SDS011;55953;51.650;-0.522;2023-04-03T08:11:43;9.00;;;3.20;;
68910;SDS011;55953;51.650;-0.522;2023-04-03T08:14:12;9.40;;;3.70;;
68910;SDS011;55953;51.650;-0.522;2023-04-03T08:16:46;7.80;;;2.80;;
68910;SDS011;55953;51.650;-0.522;2023-04-03T08:19:15;6.80;;;2.70;;
68910;SDS011;55953;51.650;-0.522;2023-04-03T08:21:53;13.30;;;3.70;;
68910;SDS011;55953;51.650;-0.522;2023-04-03T08:24:22;8.90;;;3.50;;
68910;SDS011;55953;51.650;-0.522;2023-04-03T08:26:50;8.70;;;3.50;;
68910;SDS011;55953;51.650;-0.522;2023-04-03T08:29:18;12.20;;;3.20;;
68910;SDS011;55953;51.650;-0.522;2023-04-03T08:31:46;8.20;;;3.50;;
68910;SDS011;55953;51.650;-0.522;2023-04-03T08:34:15;7.30;;;3.20;;
68910;SDS011;55953;51.650;-0.522;2023-04-03T08:36:43;9.80;;;3.10;;
68910;SDS011;55953;51.650;-0.522;2023-04-03T08:39:12;12.70;;;3.80;;
68910;SDS011;55953;51.650;-0.522;2023-04-03T08:41:41;9.80;;;4.20;;
68910;SDS011;55953;51.650;-0.522;2023-04-03T08:47:24;10.60;;;3.80;;
68910;SDS011;55953;51.650;-0.522;2023-04-03T08:50:00;9.50;;;3.70;;
68910;SDS011;55953;51.650;-0.522;2023-04-03T08:52:36;10.80;;;4.60;;
68910;SDS011;55953;51.650;-0.522;2023-04-03T08:55:23;12.90;;;4.70;;
68910;SDS011;55953;51.650;-0.522;2023-04-03T08:58:06;13.90;;;4.20;;
68910;SDS011;55953;51.650;-0.522;2023-04-03T09:00:51;12.40;;;4.20;;
68910;SDS011;55953;51.650;-0.522;2023-04-03T09:03:24;10.00;;;3.80;;
68910;SDS011;55953;51.650;-0.522;2023-04-03T09:15:21;14.80;;;4.50;;
68910;SDS011;55953;51.650;-0.522;2023-04-03T09:18:20;10.90;;;3.90;;
68910;SDS011;55953;51.650;-0.522;2023-04-03T09:24:00;12.00;;;3.70;;
68910;SDS011;55953;51.650;-0.522;2023-04-03T09:26:56;9.90;;;3.70;;
68910;SDS011;55953;51.650;-0.522;2023-04-03T09:29:27;8.60;;;3.30;;
68910;SDS011;55953;51.650;-0.522;2023-04-03T09:32:02;9.00;;;2.90;;
68910;SDS011;55953;51.650;-0.522;2023-04-03T09:34:48;8.50;;;3.50;;
68910;SDS011;55953;51.650;-0.522;2023-04-03T09:37:40;9.30;;;3.40;;
68910;SDS011;55953;51.650;-0.522;2023-04-03T09:42:59;10.30;;;3.40;;
68910;SDS011;55953;51.650;-0.522;2023-04-03T09:45:32;8.10;;;4.00;;
68910;SDS011;55953;51.650;-0.522;2023-04-03T09:53:38;10.70;;;3.80;;
68910;SDS011;55953;51.650;-0.522;2023-04-03T09:59:07;10.10;;;4.20;;
68910;SDS011;55953;51.650;-0.522;2023-04-03T10:01:38;9.50;;;4.30;;
68910;SDS011;55953;51.650;-0.522;2023-04-03T10:04:12;8.80;;;4.20;;
68910;SDS011;55953;51.650;-0.522;2023-04-03T10:06:51;9.30;;;4.80;;
68910;SDS011;55953;51.650;-0.522;2023-04-03T10:09:27;7.60;;;3.60;;
68910;SDS011;55953;51.650;-0.522;2023-04-03T10:12:03;7.70;;;3.80;;
68910;SDS011;55953;51.650;-0.522;2023-04-03T10:14:35;9.20;;;4.10;;
68910;SDS011;55953;51.650;-0.522;2023-04-03T10:20:37;10.10;;;4.40;;
68910;SDS011;55953;51.650;-0.522;2023-04-03T10:23:33;8.70;;;3.90;;
68910;SDS011;55953;51.650;-0.522;2023-04-03T10:29:18;7.30;;;4.30;;
68910;SDS011;55953;51.650;-0.522;2023-04-03T10:35:30;9.30;;;4.30;;
68910;SDS011;55953;51.650;-0.522;2023-04-03T10:38:19;12.30;;;4.40;;
68910;SDS011;55953;51.650;-0.522;2023-04-03T10:41:02;12.20;;;4.30;;
68910;SDS011;55953;51.650;-0.522;2023-04-03T10:44:20;9.50;;;4.00;;
68910;SDS011;55953;51.650;-0.522;2023-04-03T10:47:02;10.30;;;3.70;;
68910;SDS011;55953;51.650;-0.522;2023-04-03T10:55:53;7.80;;;3.40;;
68910;SDS011;55953;51.650;-0.522;2023-04-03T10:58:32;6.70;;;3.50;;
68910;SDS011;55953;51.650;-0.522;2023-04-03T11:01:11;7.30;;;3.20;;
68910;SDS011;55953;51.650;-0.522;2023-04-03T11:03:49;9.70;;;3.50;;
68910;SDS011;55953;51.650;-0.522;2023-04-03T11:06:24;9.90;;;3.80;;
68910;SDS011;55953;51.650;-0.522;2023-04-03T11:09:03;7.60;;;3.30;;
68910;SDS011;55953;51.650;-0.522;2023-04-03T11:12:05;9.90;;;3.80;;
68910;SDS011;55953;51.650;-0.522;2023-04-03T11:14:57;6.10;;;3.40;;
68910;SDS011;55953;51.650;-0.522;2023-04-03T11:17:33;7.80;;;3.20;;
68910;SDS011;55953;51.650;-0.522;2023-04-03T11:20:17;7.00;;;3.20;;
68910;SDS011;55953;51.650;-0.522;2023-04-03T11:23:04;7.50;;;3.20;;
68910;SDS011;55953;51.650;-0.522;2023-04-03T11:25:40;8.50;;;2.70;;
68910;SDS011;55953;51.650;-0.522;2023-04-03T11:28:13;6.20;;;3.00;;
68910;SDS011;55953;51.650;-0.522;2023-04-03T11:36:47;7.30;;;2.70;;
68910;SDS011;55953;51.650;-0.522;2023-04-03T11:39:30;7.60;;;2.80;;
68910;SDS011;55953;51.650;-0.522;2023-04-03T11:48:04;5.70;;;2.90;;
68910;SDS011;55953;51.650;-0.522;2023-04-03T11:53:32;8.10;;;2.60;;
68910;SDS011;55953;51.650;-0.522;2023-04-03T12:01:53;6.60;;;2.90;;
68910;SDS011;55953;51.650;-0.522;2023-04-03T12:04:25;7.60;;;2.90;;
68910;SDS011;55953;51.650;-0.522;2023-04-03T12:15:23;9.90;;;3.60;;
68910;SDS011;55953;51.650;-0.522;2023-04-03T12:18:43;5.20;;;2.90;;
68910;SDS011;55953;51.650;-0.522;2023-04-03T12:26:51;8.10;;;3.40;;
68910;SDS011;55953;51.650;-0.522;2023-04-03T12:32:26;6.40;;;3.10;;
68910;SDS011;55953;51.650;-0.522;2023-04-03T12:35:14;5.40;;;2.80;;
68910;SDS011;55953;51.650;-0.522;2023-04-03T12:38:53;6.10;;;3.20;;
68910;SDS011;55953;51.650;-0.522;2023-04-03T12:47:00;7.40;;;3.50;;
68910;SDS011;55953;51.650;-0.522;2023-04-03T12:49:45;6.70;;;3.00;;
68910;SDS011;55953;51.650;-0.522;2023-04-03T12:52:32;7.10;;;3.50;;
68910;SDS011;55953;51.650;-0.522;2023-04-03T12:55:12;7.10;;;3.90;;
68910;SDS011;55953;51.650;-0.522;2023-04-03T12:57:43;6.90;;;4.00;;
68910;SDS011;55953;51.650;-0.522;2023-04-03T13:00:33;6.90;;;3.30;;
68910;SDS011;55953;51.650;-0.522;2023-04-03T13:03:04;7.60;;;3.60;;
68910;SDS011;55953;51.650;-0.522;2023-04-03T13:05:34;8.80;;;3.60;;
68910;SDS011;55953;51.650;-0.522;2023-04-03T13:08:08;7.00;;;3.50;;
68910;SDS011;55953;51.650;-0.522;2023-04-03T13:10:58;6.40;;;3.30;;
68910;SDS011;55953;51.650;-0.522;2023-04-03T13:13:30;6.90;;;3.90;;
68910;SDS011;55953;51.650;-0.522;2023-04-03T13:15:58;7.90;;;3.40;;
68910;SDS011;55953;51.650;-0.522;2023-04-03T13:18:31;6.80;;;3.30;;
68910;SDS011;55953;51.650;-0.522;2023-04-03T13:23:35;6.90;;;3.70;;
68910;SDS011;55953;51.650;-0.522;2023-04-03T13:26:06;9.40;;;3.70;;
68910;SDS011;55953;51.650;-0.522;2023-04-03T13:28:36;5.70;;;3.10;;
68910;SDS011;55953;51.650;-0.522;2023-04-03T13:31:18;6.80;;;3.70;;
68910;SDS011;55953;51.650;-0.522;2023-04-03T13:33:58;7.30;;;3.60;;
68910;SDS011;55953;51.650;-0.522;2023-04-03T13:36:33;9.40;;;4.20;;
68910;SDS011;55953;51.650;-0.522;2023-04-03T13:41:46;6.40;;;3.20;;
68910;SDS011;55953;51.650;-0.522;2023-04-03T13:47:16;6.70;;;4.40;;
68910;SDS011;55953;51.650;-0.522;2023-04-03T13:49:58;7.00;;;4.10;;
68910;SDS011;55953;51.650;-0.522;2023-04-03T13:52:40;5.60;;;3.70;;
68910;SDS011;55953;51.650;-0.522;2023-04-03T13:55:23;6.80;;;3.20;;
68910;SDS011;55953;51.650;-0.522;2023-04-03T13:58:36;6.40;;;2.90;;
68910;SDS011;55953;51.650;-0.522;2023-04-03T14:01:20;5.40;;;2.70;;
68910;SDS011;55953;51.650;-0.522;2023-04-03T14:03:56;5.40;;;3.00;;
68910;SDS011;55953;51.650;-0.522;2023-04-03T14:06:27;7.00;;;3.10;;
68910;SDS011;55953;51.650;-0.522;2023-04-03T14:08:56;4.20;;;2.80;;
68910;SDS011;55953;51.650;-0.522;2023-04-03T14:11:28;10.60;;;3.50;;
68910;SDS011;55953;51.650;-0.522;2023-04-03T14:14:02;5.50;;;3.10;;
68910;SDS011;55953;51.650;-0.522;2023-04-03T14:16:37;6.30;;;3.30;;
68910;SDS011;55953;51.650;-0.522;2023-04-03T14:19:18;6.70;;;3.40;;
68910;SDS011;55953;51.650;-0.522;2023-04-03T14:21:51;6.10;;;3.20;;
68910;SDS011;55953;51.650;-0.522;2023-04-03T14:24:22;5.90;;;3.00;;
68910;SDS011;55953;51.650;-0.522;2023-04-03T14:26:53;8.10;;;3.70;;
68910;SDS011;55953;51.650;-0.522;2023-04-03T14:29:22;7.40;;;2.90;;
68910;SDS011;55953;51.650;-0.522;2023-04-03T14:31:50;7.40;;;3.20;;
68910;SDS011;55953;51.650;-0.522;2023-04-03T14:34:38;4.20;;;2.70;;
68910;SDS011;55953;51.650;-0.522;2023-04-03T14:37:14;7.20;;;2.90;;
68910;SDS011;55953;51.650;-0.522;2023-04-03T14:39:47;5.60;;;2.80;;
68910;SDS011;55953;51.650;-0.522;2023-04-03T14:42:24;9.40;;;4.00;;
68910;SDS011;55953;51.650;-0.522;2023-04-03T14:45:09;12.80;;;3.80;;
68910;SDS011;55953;51.650;-0.522;2023-04-03T14:47:46;6.50;;;3.10;;
68910;SDS011;55953;51.650;-0.522;2023-04-03T14:50:19;5.30;;;2.80;;
68910;SDS011;55953;51.650;-0.522;2023-04-03T14:52:54;5.90;;;3.00;;
68910;SDS011;55953;51.650;-0.522;2023-04-03T14:55:27;6.60;;;2.80;;
68910;SDS011;55953;51.650;-0.522;2023-04-03T14:57:56;7.10;;;3.40;;
68910;SDS011;55953;51.650;-0.522;2023-04-03T15:00:23;13.50;;;5.70;;
68910;SDS011;55953;51.650;-0.522;2023-04-03T15:02:51;13.40;;;4.90;;
68910;SDS011;55953;51.650;-0.522;2023-04-03T15:05:20;7.00;;;3.30;;
68910;SDS011;55953;51.650;-0.522;2023-04-03T15:07:52;6.40;;;2.70;;
68910;SDS011;55953;51.650;-0.522;2023-04-03T15:10:26;12.00;;;4.30;;
68910;SDS011;55953;51.650;-0.522;2023-04-03T15:12:56;9.90;;;4.20;;
68910;SDS011;55953;51.650;-0.522;2023-04-03T15:15:28;7.50;;;3.30;;
68910;SDS011;55953;51.650;-0.522;2023-04-03T15:17:57;4.70;;;2.80;;
68910;SDS011;55953;51.650;-0.522;2023-04-03T15:20:28;4.90;;;2.60;;
68910;SDS011;55953;51.650;-0.522;2023-04-03T15:23:00;5.00;;;3.00;;
68910;SDS011;55953;51.650;-0.522;2023-04-03T15:25:29;6.00;;;2.90;;
68910;SDS011;55953;51.650;-0.522;2023-04-03T15:27:57;9.40;;;3.70;;
68910;SDS011;55953;51.650;-0.522;2023-04-03T15:30:25;5.40;;;2.90;;
68910;SDS011;55953;51.650;-0.522;2023-04-03T15:32:53;5.90;;;2.60;;
68910;SDS011;55953;51.650;-0.522;2023-04-03T15:35:21;4.00;;;2.40;;
68910;SDS011;55953;51.650;-0.522;2023-04-03T15:37:50;7.80;;;3.00;;
68910;SDS011;55953;51.650;-0.522;2023-04-03T15:40:18;4.30;;;2.40;;
68910;SDS011;55953;51.650;-0.522;2023-04-03T15:42:46;4.40;;;2.60;;
68910;SDS011;55953;51.650;-0.522;2023-04-03T15:45:14;6.00;;;2.90;;
68910;SDS011;55953;51.650;-0.522;2023-04-03T15:47:42;4.80;;;2.80;;
68910;SDS011;55953;51.650;-0.522;2023-04-03T15:50:10;4.50;;;3.00;;
68910;SDS011;55953;51.650;-0.522;2023-04-03T15:52:39;5.00;;;2.80;;
68910;SDS011;55953;51.650;-0.522;2023-04-03T15:55:07;5.40;;;2.80;;
68910;SDS011;55953;51.650;-0.522;2023-04-03T15:57:35;7.30;;;3.50;;
68910;SDS011;55953;51.650;-0.522;2023-04-03T16:00:08;6.30;;;2.90;;
68910;SDS011;55953;51.650;-0.522;2023-04-03T16:02:37;7.20;;;2.90;;
68910;SDS011;55953;51.650;-0.522;2023-04-03T16:05:06;6.30;;;3.10;;
68910;SDS011;55953;51.650;-0.522;2023-04-03T16:07:40;7.10;;;2.90;;
68910;SDS011;55953;51.650;-0.522;2023-04-03T16:10:10;7.80;;;3.20;;
68910;SDS011;55953;51.650;-0.522;2023-04-03T16:12:38;6.70;;;2.70;;
68910;SDS011;55953;51.650;-0.522;2023-04-03T16:15:07;5.50;;;3.20;;
68910;SDS011;55953;51.650;-0.522;2023-04-03T16:17:36;7.80;;;3.30;;
68910;SDS011;55953;51.650;-0.522;2023-04-03T16:20:06;6.10;;;3.40;;
68910;SDS011;55953;51.650;-0.522;2023-04-03T16:22:36;6.70;;;2.70;;
68910;SDS011;55953;51.650;-0.522;2023-04-03T16:25:06;7.30;;;3.40;;
68910;SDS011;55953;51.650;-0.522;2023-04-03T16:27:35;8.10;;;4.00;;
68910;SDS011;55953;51.650;-0.522;2023-04-03T16:30:05;5.10;;;3.50;;
68910;SDS011;55953;51.650;-0.522;2023-04-03T16:32:33;5.40;;;2.80;;
68910;SDS011;55953;51.650;-0.522;2023-04-03T16:35:02;6.00;;;3.00;;
68910;SDS011;55953;51.650;-0.522;2023-04-03T16:37:30;7.40;;;3.50;;
68910;SDS011;55953;51.650;-0.522;2023-04-03T16:39:59;7.90;;;3.20;;
68910;SDS011;55953;51.650;-0.522;2023-04-03T16:42:27;7.30;;;3.00;;
68910;SDS011;55953;51.650;-0.522;2023-04-03T16:44:55;6.30;;;3.10;;
68910;SDS011;55953;51.650;-0.522;2023-04-03T16:47:23;5.50;;;2.20;;
68910;SDS011;55953;51.650;-0.522;2023-04-03T16:49:51;6.50;;;2.70;;
68910;SDS011;55953;51.650;-0.522;2023-04-03T16:52:18;4.50;;;2.40;;
68910;SDS011;55953;51.650;-0.522;2023-04-03T16:54:46;6.00;;;2.70;;